sensor_id;sensor_type;location;lat;lon;timestamp;pressure;altitude;pressure_sealevel;temperature;humidity
18509;BME280;9383;50.928;12.116;2022-07-06T00:01:57;99335.31;;;15.86;81.42
18509;BME280;9383;50.928;12.116;2022-07-06T00:04:23;99324.31;;;15.75;81.19
18509;BME280;9383;50.928;12.116;2022-07-06T00:06:50;99349.47;;;15.88;81.55
18509;BME280;9383;50.928;12.116;2022-07-06T00:09:16;99243.13;;;15.23;81.58
18509;BME280;9383;50.928;12.116;2022-07-06T00:11:42;99336.16;;;15.69;81.64
18509;BME280;9383;50.928;12.116;2022-07-06T00:14:09;99350.88;;;15.78;81.56
18509;BME280;9383;50.928;12.116;2022-07-06T00:16:35;99320.56;;;15.60;81.75
18509;BME280;9383;50.928;12.116;2022-07-06T00:19:01;99343.16;;;15.72;81.85
18509;BME280;9383;50.928;12.116;2022-07-06T00:21:27;99285.25;;;15.36;82.15
18509;BME280;9383;50.928;12.116;2022-07-06T00:23:53;99290.75;;;15.32;81.93
18509;BME280;9383;50.928;12.116;2022-07-06T00:26:19;99240.66;;;15.01;81.99
18509;BME280;9383;50.928;12.116;2022-07-06T00:28:45;99345.56;;;15.59;82.25
18509;BME280;9383;50.928;12.116;2022-07-06T00:31:12;99345.56;;;15.59;82.85
18509;BME280;9383;50.928;12.116;2022-07-06T00:33:38;99347.56;;;15.55;83.20
18509;BME280;9383;50.928;12.116;2022-07-06T00:36:05;99305.50;;;15.22;83.18
18509;BME280;9383;50.928;12.116;2022-07-06T00:38:31;99324.41;;;15.37;83.03
18509;BME280;9383;50.928;12.116;2022-07-06T00:40:57;99352.34;;;15.49;83.08
18509;BME280;9383;50.928;12.116;2022-07-06T00:43:23;99273.84;;;14.95;83.01
18509;BME280;9383;50.928;12.116;2022-07-06T00:45:50;99350.66;;;15.46;83.23
18509;BME280;9383;50.928;12.116;2022-07-06T00:48:16;99281.34;;;15.06;83.35
18509;BME280;9383;50.928;12.116;2022-07-06T00:50:42;99260.66;;;14.92;83.14
18509;BME280;9383;50.928;12.116;2022-07-06T00:53:09;99346.31;;;15.43;83.50
18509;BME280;9383;50.928;12.116;2022-07-06T00:55:39;99326.44;;;15.31;83.70
18509;BME280;9383;50.928;12.116;2022-07-06T00:58:07;99349.06;;;15.42;83.82
18509;BME280;9383;50.928;12.116;2022-07-06T01:00:34;99325.72;;;15.28;84.24
18509;BME280;9383;50.928;12.116;2022-07-06T01:03:01;99328.44;;;15.26;84.74
18509;BME280;9383;50.928;12.116;2022-07-06T01:05:28;99343.09;;;15.37;85.16
18509;BME280;9383;50.928;12.116;2022-07-06T01:07:55;99299.19;;;15.05;85.07
18509;BME280;9383;50.928;12.116;2022-07-06T01:10:24;99339.69;;;15.33;85.17
18509;BME280;9383;50.928;12.116;2022-07-06T01:12:50;99335.22;;;15.33;85.18
18509;BME280;9383;50.928;12.116;2022-07-06T01:15:23;99328.28;;;15.29;85.70
18509;BME280;9383;50.928;12.116;2022-07-06T01:17:50;99330.06;;;15.30;85.43
18509;BME280;9383;50.928;12.116;2022-07-06T01:20:22;99340.56;;;15.33;85.45
18509;BME280;9383;50.928;12.116;2022-07-06T01:22:51;99283.88;;;14.90;85.91
18509;BME280;9383;50.928;12.116;2022-07-06T01:25:19;99321.53;;;15.22;85.90
18509;BME280;9383;50.928;12.116;2022-07-06T01:27:46;99318.06;;;15.20;85.78
18509;BME280;9383;50.928;12.116;2022-07-06T01:30:17;99339.28;;;15.23;85.63
18509;BME280;9383;50.928;12.116;2022-07-06T01:32:44;99339.84;;;15.30;85.69
18509;BME280;9383;50.928;12.116;2022-07-06T01:35:13;99341.72;;;15.28;85.65
18509;BME280;9383;50.928;12.116;2022-07-06T01:37:40;99283.75;;;14.93;85.71
18509;BME280;9383;50.928;12.116;2022-07-06T01:40:10;99314.88;;;15.12;85.56
18509;BME280;9383;50.928;12.116;2022-07-06T01:42:37;99327.03;;;15.19;85.50
18509;BME280;9383;50.928;12.116;2022-07-06T01:45:04;99334.38;;;15.14;85.72
18509;BME280;9383;50.928;12.116;2022-07-06T01:47:31;99327.50;;;15.08;85.72
18509;BME280;9383;50.928;12.116;2022-07-06T01:50:00;99336.91;;;15.17;85.70
18509;BME280;9383;50.928;12.116;2022-07-06T01:52:27;99335.25;;;15.14;85.59
18509;BME280;9383;50.928;12.116;2022-07-06T01:54:56;99311.06;;;14.98;85.65
18509;BME280;9383;50.928;12.116;2022-07-06T01:57:23;99332.75;;;15.11;85.79
18509;BME280;9383;50.928;12.116;2022-07-06T01:59:49;99325.72;;;15.09;86.15
18509;BME280;9383;50.928;12.116;2022-07-06T02:02:15;99328.47;;;15.07;86.34
18509;BME280;9383;50.928;12.116;2022-07-06T02:04:41;99308.78;;;14.90;86.59
18509;BME280;9383;50.928;12.116;2022-07-06T02:07:07;99333.22;;;15.00;86.63
18509;BME280;9383;50.928;12.116;2022-07-06T02:09:33;99311.50;;;14.89;86.56
18509;BME280;9383;50.928;12.116;2022-07-06T02:11:59;99279.59;;;14.67;86.55
18509;BME280;9383;50.928;12.116;2022-07-06T02:14:25;99310.88;;;14.84;86.58
18509;BME280;9383;50.928;12.116;2022-07-06T02:16:51;99329.25;;;14.90;86.42
18509;BME280;9383;50.928;12.116;2022-07-06T02:19:17;99320.75;;;14.82;86.52
18509;BME280;9383;50.928;12.116;2022-07-06T02:21:43;99340.00;;;14.88;86.53
18509;BME280;9383;50.928;12.116;2022-07-06T02:24:09;99341.00;;;14.86;86.45
18509;BME280;9383;50.928;12.116;2022-07-06T02:26:35;99329.03;;;14.75;86.22
18509;BME280;9383;50.928;12.116;2022-07-06T02:29:01;99353.72;;;14.81;86.06
18509;BME280;9383;50.928;12.116;2022-07-06T02:31:27;99346.75;;;14.76;85.81
18509;BME280;9383;50.928;12.116;2022-07-06T02:33:53;99281.22;;;14.31;85.54
18509;BME280;9383;50.928;12.116;2022-07-06T02:36:19;99331.00;;;14.51;85.67
18509;BME280;9383;50.928;12.116;2022-07-06T02:38:45;99316.72;;;14.31;85.82
18509;BME280;9383;50.928;12.116;2022-07-06T02:41:11;99364.53;;;14.57;85.54
18509;BME280;9383;50.928;12.116;2022-07-06T02:43:38;99269.56;;;13.92;85.49
18509;BME280;9383;50.928;12.116;2022-07-06T02:46:05;99346.81;;;14.35;85.09
18509;BME280;9383;50.928;12.116;2022-07-06T02:48:31;99356.53;;;14.36;85.00
18509;BME280;9383;50.928;12.116;2022-07-06T02:50:57;99297.09;;;13.92;85.33
18509;BME280;9383;50.928;12.116;2022-07-06T02:53:24;99310.28;;;13.96;84.84
18509;BME280;9383;50.928;12.116;2022-07-06T02:55:50;99308.81;;;13.88;84.74
18509;BME280;9383;50.928;12.116;2022-07-06T02:58:16;99307.22;;;13.84;84.71
18509;BME280;9383;50.928;12.116;2022-07-06T03:00:42;99356.66;;;14.12;84.64
18509;BME280;9383;50.928;12.116;2022-07-06T03:03:08;99338.00;;;13.91;84.83
18509;BME280;9383;50.928;12.116;2022-07-06T03:05:36;99310.59;;;13.67;84.70
18509;BME280;9383;50.928;12.116;2022-07-06T03:08:02;99264.69;;;13.38;84.55
18509;BME280;9383;50.928;12.116;2022-07-06T03:10:28;99295.44;;;13.47;84.43
18509;BME280;9383;50.928;12.116;2022-07-06T03:12:54;99340.59;;;13.72;84.62
18509;BME280;9383;50.928;12.116;2022-07-06T03:15:20;99376.63;;;13.81;84.62
18509;BME280;9383;50.928;12.116;2022-07-06T03:17:46;99275.59;;;13.09;84.64
18509;BME280;9383;50.928;12.116;2022-07-06T03:20:12;99300.94;;;13.20;84.86
18509;BME280;9383;50.928;12.116;2022-07-06T03:22:39;99387.00;;;13.67;84.84
18509;BME280;9383;50.928;12.116;2022-07-06T03:25:05;99388.03;;;13.62;84.83
18509;BME280;9383;50.928;12.116;2022-07-06T03:27:31;99337.94;;;13.26;84.99
18509;BME280;9383;50.928;12.116;2022-07-06T03:29:59;99317.19;;;13.12;84.87
18509;BME280;9383;50.928;12.116;2022-07-06T03:32:26;99385.94;;;13.48;84.88
18509;BME280;9383;50.928;12.116;2022-07-06T03:34:52;99367.81;;;13.34;84.82
18509;BME280;9383;50.928;12.116;2022-07-06T03:37:18;99323.75;;;13.03;84.82
18509;BME280;9383;50.928;12.116;2022-07-06T03:39:44;99372.69;;;13.23;84.85
18509;BME280;9383;50.928;12.116;2022-07-06T03:42:10;99369.25;;;13.19;84.57
18509;BME280;9383;50.928;12.116;2022-07-06T03:44:36;99383.19;;;13.26;84.50
18509;BME280;9383;50.928;12.116;2022-07-06T03:47:02;99322.03;;;12.78;84.91
18509;BME280;9383;50.928;12.116;2022-07-06T03:49:28;99344.94;;;12.83;85.46
18509;BME280;9383;50.928;12.116;2022-07-06T03:51:54;99333.06;;;12.68;86.00
18509;BME280;9383;50.928;12.116;2022-07-06T03:54:20;99381.72;;;12.95;86.32
18509;BME280;9383;50.928;12.116;2022-07-06T03:56:46;99405.22;;;13.07;86.72
18509;BME280;9383;50.928;12.116;2022-07-06T03:59:13;99402.56;;;13.07;87.14
18509;BME280;9383;50.928;12.116;2022-07-06T04:01:40;99372.00;;;12.94;87.47
18509;BME280;9383;50.928;12.116;2022-07-06T04:04:06;99405.22;;;13.07;87.92
18509;BME280;9383;50.928;12.116;2022-07-06T04:06:32;99405.22;;;13.07;88.42
18509;BME280;9383;50.928;12.116;2022-07-06T04:09:00;99342.94;;;12.64;88.40
18509;BME280;9383;50.928;12.116;2022-07-06T04:11:26;99413.97;;;13.11;88.14
18509;BME280;9383;50.928;12.116;2022-07-06T04:13:52;99371.38;;;12.87;87.73
18509;BME280;9383;50.928;12.116;2022-07-06T04:16:20;99411.13;;;13.16;88.03
18509;BME280;9383;50.928;12.116;2022-07-06T04:18:46;99384.97;;;13.03;88.02
18509;BME280;9383;50.928;12.116;2022-07-06T04:21:12;99408.16;;;13.23;88.14
18509;BME280;9383;50.928;12.116;2022-07-06T04:23:38;99350.84;;;12.91;88.25
18509;BME280;9383;50.928;12.116;2022-07-06T04:26:04;99400.69;;;13.33;89.72
18509;BME280;9383;50.928;12.116;2022-07-06T04:28:30;99404.22;;;13.34;89.78
18509;BME280;9383;50.928;12.116;2022-07-06T04:30:56;99354.78;;;13.04;90.16
18509;BME280;9383;50.928;12.116;2022-07-06T04:33:23;99392.69;;;13.33;90.17
18509;BME280;9383;50.928;12.116;2022-07-06T04:35:49;99398.78;;;13.37;89.99
18509;BME280;9383;50.928;12.116;2022-07-06T04:38:15;99426.50;;;13.55;89.68
18509;BME280;9383;50.928;12.116;2022-07-06T04:40:41;99424.66;;;13.57;89.21
18509;BME280;9383;50.928;12.116;2022-07-06T04:43:07;99391.47;;;13.42;89.24
18509;BME280;9383;50.928;12.116;2022-07-06T04:45:33;99333.09;;;13.14;88.83
18509;BME280;9383;50.928;12.116;2022-07-06T04:47:59;99427.63;;;13.72;89.53
18509;BME280;9383;50.928;12.116;2022-07-06T04:50:25;99418.84;;;13.70;89.83
18509;BME280;9383;50.928;12.116;2022-07-06T04:52:51;99390.16;;;13.54;90.07
18509;BME280;9383;50.928;12.116;2022-07-06T04:55:17;99378.66;;;13.52;90.25
18509;BME280;9383;50.928;12.116;2022-07-06T04:57:43;99414.75;;;13.83;91.60
18509;BME280;9383;50.928;12.116;2022-07-06T05:00:11;99416.25;;;13.90;92.37
18509;BME280;9383;50.928;12.116;2022-07-06T05:02:37;99433.84;;;14.15;92.76
18509;BME280;9383;50.928;12.116;2022-07-06T05:05:03;99374.63;;;13.86;91.99
18509;BME280;9383;50.928;12.116;2022-07-06T05:07:30;99384.66;;;14.02;91.41
18509;BME280;9383;50.928;12.116;2022-07-06T05:09:58;99340.13;;;13.83;90.86
18509;BME280;9383;50.928;12.116;2022-07-06T05:12:24;99437.91;;;14.46;90.60
18509;BME280;9383;50.928;12.116;2022-07-06T05:14:50;99426.63;;;14.40;90.01
18509;BME280;9383;50.928;12.116;2022-07-06T05:17:16;99423.63;;;14.47;89.68
18509;BME280;9383;50.928;12.116;2022-07-06T05:19:42;99422.44;;;14.55;89.88
18509;BME280;9383;50.928;12.116;2022-07-06T05:22:08;99435.34;;;14.64;89.49
18509;BME280;9383;50.928;12.116;2022-07-06T05:24:34;99422.81;;;14.66;89.04
18509;BME280;9383;50.928;12.116;2022-07-06T05:27:00;99440.66;;;14.86;88.66
18509;BME280;9383;50.928;12.116;2022-07-06T05:29:26;99395.31;;;14.64;87.89
18509;BME280;9383;50.928;12.116;2022-07-06T05:31:52;99449.66;;;15.04;87.21
18509;BME280;9383;50.928;12.116;2022-07-06T05:34:18;99431.81;;;15.05;86.59
18509;BME280;9383;50.928;12.116;2022-07-06T05:36:44;99462.88;;;15.27;85.93
18509;BME280;9383;50.928;12.116;2022-07-06T05:39:12;99394.84;;;14.96;85.45
18509;BME280;9383;50.928;12.116;2022-07-06T05:41:38;99364.41;;;14.81;85.23
18509;BME280;9383;50.928;12.116;2022-07-06T05:44:04;99375.28;;;14.95;84.23
18509;BME280;9383;50.928;12.116;2022-07-06T05:46:30;99452.25;;;15.44;83.35
18509;BME280;9383;50.928;12.116;2022-07-06T05:48:56;99353.00;;;14.96;82.55
18509;BME280;9383;50.928;12.116;2022-07-06T05:51:41;99458.31;;;15.67;82.60
18509;BME280;9383;50.928;12.116;2022-07-06T05:54:07;99465.03;;;15.76;82.35
18509;BME280;9383;50.928;12.116;2022-07-06T05:56:33;99436.88;;;15.69;81.64
18509;BME280;9383;50.928;12.116;2022-07-06T05:58:59;99410.00;;;15.53;80.21
18509;BME280;9383;50.928;12.116;2022-07-06T06:01:25;99435.72;;;15.74;78.86
18509;BME280;9383;50.928;12.116;2022-07-06T06:03:51;99423.50;;;15.69;78.62
18509;BME280;9383;50.928;12.116;2022-07-06T06:06:17;99379.50;;;15.39;78.03
18509;BME280;9383;50.928;12.116;2022-07-06T06:08:43;99432.00;;;15.77;77.73
18509;BME280;9383;50.928;12.116;2022-07-06T06:11:10;99454.34;;;15.95;77.40
18509;BME280;9383;50.928;12.116;2022-07-06T06:13:36;99421.47;;;15.74;76.92
18509;BME280;9383;50.928;12.116;2022-07-06T06:16:02;99432.78;;;15.79;77.27
18509;BME280;9383;50.928;12.116;2022-07-06T06:18:28;99486.47;;;16.13;77.12
18509;BME280;9383;50.928;12.116;2022-07-06T06:20:54;99493.63;;;16.12;75.94
18509;BME280;9383;50.928;12.116;2022-07-06T06:23:20;99483.25;;;16.06;76.20
18509;BME280;9383;50.928;12.116;2022-07-06T06:25:46;99474.41;;;16.04;76.78
18509;BME280;9383;50.928;12.116;2022-07-06T06:28:12;99471.50;;;16.09;76.58
18509;BME280;9383;50.928;12.116;2022-07-06T06:30:38;99473.81;;;16.16;76.86
18509;BME280;9383;50.928;12.116;2022-07-06T06:33:12;99499.66;;;16.35;76.18
18509;BME280;9383;50.928;12.116;2022-07-06T06:35:44;99496.81;;;16.38;75.95
18509;BME280;9383;50.928;12.116;2022-07-06T06:38:11;99479.19;;;16.34;75.86
18509;BME280;9383;50.928;12.116;2022-07-06T06:40:43;99493.84;;;16.44;75.23
18509;BME280;9383;50.928;12.116;2022-07-06T06:43:10;99397.69;;;15.87;74.88
18509;BME280;9383;50.928;12.116;2022-07-06T06:45:36;99500.53;;;16.53;75.26
18509;BME280;9383;50.928;12.116;2022-07-06T06:48:02;99491.06;;;16.46;75.43
18509;BME280;9383;50.928;12.116;2022-07-06T06:50:28;99491.72;;;16.51;75.68
18509;BME280;9383;50.928;12.116;2022-07-06T06:52:55;99499.34;;;16.59;75.25
18509;BME280;9383;50.928;12.116;2022-07-06T06:55:21;99448.03;;;16.33;74.59
18509;BME280;9383;50.928;12.116;2022-07-06T06:57:47;99481.88;;;16.52;74.11
18509;BME280;9383;50.928;12.116;2022-07-06T07:00:14;99474.63;;;16.36;73.26
18509;BME280;9383;50.928;12.116;2022-07-06T07:02:40;99505.09;;;16.51;72.80
18509;BME280;9383;50.928;12.116;2022-07-06T07:05:07;99502.56;;;16.48;71.78
18509;BME280;9383;50.928;12.116;2022-07-06T07:07:33;99515.94;;;16.48;71.47
18509;BME280;9383;50.928;12.116;2022-07-06T07:09:59;99522.25;;;16.47;71.17
18509;BME280;9383;50.928;12.116;2022-07-06T07:12:25;99411.28;;;15.82;70.03
18509;BME280;9383;50.928;12.116;2022-07-06T07:14:52;99425.59;;;15.81;70.26
18509;BME280;9383;50.928;12.116;2022-07-06T07:17:18;99517.94;;;16.44;70.77
18509;BME280;9383;50.928;12.116;2022-07-06T07:19:44;99455.47;;;16.09;70.90
18509;BME280;9383;50.928;12.116;2022-07-06T07:22:10;99521.16;;;16.51;70.56
18509;BME280;9383;50.928;12.116;2022-07-06T07:24:36;99469.00;;;16.23;70.58
18509;BME280;9383;50.928;12.116;2022-07-06T07:27:03;99438.97;;;16.18;70.13
18509;BME280;9383;50.928;12.116;2022-07-06T07:29:29;99524.72;;;16.69;69.99
18509;BME280;9383;50.928;12.116;2022-07-06T07:31:55;99509.72;;;16.65;69.86
18509;BME280;9383;50.928;12.116;2022-07-06T07:34:21;99533.13;;;16.79;69.91
18509;BME280;9383;50.928;12.116;2022-07-06T07:36:47;99463.22;;;16.50;70.17
18509;BME280;9383;50.928;12.116;2022-07-06T07:39:13;99425.84;;;16.31;70.13
18509;BME280;9383;50.928;12.116;2022-07-06T07:41:39;99506.84;;;16.87;70.42
18509;BME280;9383;50.928;12.116;2022-07-06T07:44:06;99502.88;;;16.95;70.76
18509;BME280;9383;50.928;12.116;2022-07-06T07:46:32;99526.19;;;17.10;70.16
18509;BME280;9383;50.928;12.116;2022-07-06T07:48:58;99485.97;;;16.94;69.97
18509;BME280;9383;50.928;12.116;2022-07-06T07:51:24;99474.44;;;16.92;69.24
18509;BME280;9383;50.928;12.116;2022-07-06T07:53:50;99480.66;;;16.93;67.89
18509;BME280;9383;50.928;12.116;2022-07-06T07:56:16;99495.78;;;17.11;67.49
18509;BME280;9383;50.928;12.116;2022-07-06T07:58:42;99480.84;;;17.07;67.38
18509;BME280;9383;50.928;12.116;2022-07-06T08:01:08;99525.00;;;17.34;67.75
18509;BME280;9383;50.928;12.116;2022-07-06T08:03:34;99417.91;;;16.81;68.65
18509;BME280;9383;50.928;12.116;2022-07-06T08:06:00;99466.06;;;17.16;69.01
18509;BME280;9383;50.928;12.116;2022-07-06T08:08:26;99504.38;;;17.52;69.26
18509;BME280;9383;50.928;12.116;2022-07-06T08:10:52;99508.44;;;17.59;69.39
18509;BME280;9383;50.928;12.116;2022-07-06T08:13:18;99501.53;;;17.71;69.15
18509;BME280;9383;50.928;12.116;2022-07-06T08:15:45;99496.69;;;17.78;67.25
18509;BME280;9383;50.928;12.116;2022-07-06T08:18:11;99469.50;;;17.68;65.64
18509;BME280;9383;50.928;12.116;2022-07-06T08:20:37;99405.25;;;17.34;65.20
18509;BME280;9383;50.928;12.116;2022-07-06T08:23:04;99457.94;;;17.83;64.95
18509;BME280;9383;50.928;12.116;2022-07-06T08:25:31;99485.78;;;18.13;64.41
18509;BME280;9383;50.928;12.116;2022-07-06T08:27:57;99430.06;;;17.86;63.50
18509;BME280;9383;50.928;12.116;2022-07-06T08:30:23;99490.94;;;18.32;63.28
18509;BME280;9383;50.928;12.116;2022-07-06T08:32:50;99449.09;;;18.13;61.43
18509;BME280;9383;50.928;12.116;2022-07-06T08:35:16;99497.16;;;18.49;60.39
18509;BME280;9383;50.928;12.116;2022-07-06T08:37:42;99442.94;;;18.27;59.20
18509;BME280;9383;50.928;12.116;2022-07-06T08:40:10;99492.03;;;18.60;58.73
18509;BME280;9383;50.928;12.116;2022-07-06T08:42:36;99493.38;;;18.67;59.33
18509;BME280;9383;50.928;12.116;2022-07-06T08:45:06;99462.50;;;18.60;60.01
18509;BME280;9383;50.928;12.116;2022-07-06T08:47:36;99490.34;;;18.88;60.87
18509;BME280;9383;50.928;12.116;2022-07-06T08:50:04;99492.22;;;19.02;60.95
18509;BME280;9383;50.928;12.116;2022-07-06T08:52:30;99496.94;;;19.13;59.70
18509;BME280;9383;50.928;12.116;2022-07-06T08:54:57;99493.09;;;19.17;59.11
18509;BME280;9383;50.928;12.116;2022-07-06T08:57:25;99493.31;;;19.14;56.60
18509;BME280;9383;50.928;12.116;2022-07-06T08:59:52;99469.16;;;18.98;57.16
18509;BME280;9383;50.928;12.116;2022-07-06T09:02:19;99487.44;;;19.07;56.40
18509;BME280;9383;50.928;12.116;2022-07-06T09:04:47;99471.56;;;18.88;55.32
18509;BME280;9383;50.928;12.116;2022-07-06T09:07:15;99420.06;;;18.51;55.95
18509;BME280;9383;50.928;12.116;2022-07-06T09:09:42;99486.72;;;18.89;55.50
18509;BME280;9383;50.928;12.116;2022-07-06T09:12:12;99489.41;;;18.89;56.07
18509;BME280;9383;50.928;12.116;2022-07-06T09:14:39;99470.03;;;18.84;57.43
18509;BME280;9383;50.928;12.116;2022-07-06T09:17:06;99484.00;;;19.05;56.01
18509;BME280;9383;50.928;12.116;2022-07-06T09:19:34;99487.34;;;19.09;54.89
18509;BME280;9383;50.928;12.116;2022-07-06T09:22:02;99479.66;;;19.03;53.80
18509;BME280;9383;50.928;12.116;2022-07-06T09:24:28;99451.72;;;18.91;54.96
18509;BME280;9383;50.928;12.116;2022-07-06T09:26:56;99480.44;;;19.19;56.05
18509;BME280;9383;50.928;12.116;2022-07-06T09:29:28;99482.53;;;19.29;55.17
18509;BME280;9383;50.928;12.116;2022-07-06T09:32:01;99474.97;;;19.35;54.76
18509;BME280;9383;50.928;12.116;2022-07-06T09:34:42;99436.09;;;19.12;54.56
18509;BME280;9383;50.928;12.116;2022-07-06T09:37:13;99486.19;;;19.42;53.52
18509;BME280;9383;50.928;12.116;2022-07-06T09:39:40;99474.28;;;19.32;52.48
18509;BME280;9383;50.928;12.116;2022-07-06T09:42:08;99490.59;;;19.14;52.88
18509;BME280;9383;50.928;12.116;2022-07-06T09:44:37;99487.81;;;19.01;53.84
18509;BME280;9383;50.928;12.116;2022-07-06T09:47:10;99458.69;;;18.93;54.67
18509;BME280;9383;50.928;12.116;2022-07-06T09:49:38;99481.50;;;19.17;53.98
18509;BME280;9383;50.928;12.116;2022-07-06T09:52:08;99483.91;;;19.21;53.59
18509;BME280;9383;50.928;12.116;2022-07-06T09:54:36;99476.59;;;19.23;53.37
18509;BME280;9383;50.928;12.116;2022-07-06T09:57:03;99412.81;;;18.82;53.51
18509;BME280;9383;50.928;12.116;2022-07-06T09:59:33;99484.84;;;19.20;52.28
18509;BME280;9383;50.928;12.116;2022-07-06T10:02:06;99464.75;;;18.97;52.20
18509;BME280;9383;50.928;12.116;2022-07-06T10:04:33;99491.38;;;19.02;52.48
18509;BME280;9383;50.928;12.116;2022-07-06T10:07:00;99486.31;;;18.95;52.38
18509;BME280;9383;50.928;12.116;2022-07-06T10:09:28;99480.56;;;18.87;52.38
18509;BME280;9383;50.928;12.116;2022-07-06T10:12:00;99480.94;;;18.81;53.55
18509;BME280;9383;50.928;12.116;2022-07-06T10:14:30;99471.34;;;18.77;53.51
18509;BME280;9383;50.928;12.116;2022-07-06T10:17:00;99422.94;;;18.48;53.96
18509;BME280;9383;50.928;12.116;2022-07-06T10:19:30;99469.81;;;18.87;54.12
18509;BME280;9383;50.928;12.116;2022-07-06T10:22:00;99476.25;;;18.99;54.53
18509;BME280;9383;50.928;12.116;2022-07-06T10:24:28;99469.88;;;19.16;55.15
18509;BME280;9383;50.928;12.116;2022-07-06T10:26:55;99444.25;;;19.25;54.70
18509;BME280;9383;50.928;12.116;2022-07-06T10:29:23;99448.00;;;19.37;53.55
18509;BME280;9383;50.928;12.116;2022-07-06T10:31:49;99459.88;;;19.62;51.72
18509;BME280;9383;50.928;12.116;2022-07-06T10:34:19;99425.31;;;19.41;48.69
18509;BME280;9383;50.928;12.116;2022-07-06T10:36:53;99467.72;;;19.65;49.46
18509;BME280;9383;50.928;12.116;2022-07-06T10:39:37;99466.75;;;19.66;49.63
18509;BME280;9383;50.928;12.116;2022-07-06T10:42:49;99454.34;;;19.78;51.00
18509;BME280;9383;50.928;12.116;2022-07-06T10:50:53;99431.59;;;20.11;49.58
18509;BME280;9383;50.928;12.116;2022-07-06T10:53:25;99437.88;;;20.24;50.50
18509;BME280;9383;50.928;12.116;2022-07-06T10:55:55;99428.41;;;20.32;50.48
18509;BME280;9383;50.928;12.116;2022-07-06T10:58:50;99402.19;;;20.21;47.82
18509;BME280;9383;50.928;12.116;2022-07-06T11:01:21;99425.50;;;20.35;47.76
18509;BME280;9383;50.928;12.116;2022-07-06T11:06:25;99439.00;;;20.48;47.59
18509;BME280;9383;50.928;12.116;2022-07-06T11:14:07;99440.75;;;20.49;46.42
18509;BME280;9383;50.928;12.116;2022-07-06T11:19:20;99414.00;;;20.33;48.67
18509;BME280;9383;50.928;12.116;2022-07-06T11:21:51;99447.97;;;20.61;49.16
18509;BME280;9383;50.928;12.116;2022-07-06T11:24:29;99449.38;;;20.67;47.76
18509;BME280;9383;50.928;12.116;2022-07-06T11:26:57;99429.97;;;20.62;46.80
18509;BME280;9383;50.928;12.116;2022-07-06T11:29:26;99447.09;;;20.61;46.35
18509;BME280;9383;50.928;12.116;2022-07-06T11:31:59;99445.59;;;20.57;44.59
18509;BME280;9383;50.928;12.116;2022-07-06T11:34:41;99441.59;;;20.49;45.15
18509;BME280;9383;50.928;12.116;2022-07-06T11:37:13;99449.66;;;20.49;45.15
18509;BME280;9383;50.928;12.116;2022-07-06T11:39:42;99448.16;;;20.58;45.65
18509;BME280;9383;50.928;12.116;2022-07-06T11:42:11;99429.53;;;20.55;44.48
18509;BME280;9383;50.928;12.116;2022-07-06T11:44:40;99440.44;;;20.66;44.05
18509;BME280;9383;50.928;12.116;2022-07-06T11:47:09;99434.41;;;20.76;44.88
18509;BME280;9383;50.928;12.116;2022-07-06T11:49:37;99368.09;;;20.34;44.50
18509;BME280;9383;50.928;12.116;2022-07-06T11:52:13;99426.41;;;20.74;44.29
18509;BME280;9383;50.928;12.116;2022-07-06T11:54:40;99441.09;;;20.83;44.89
18509;BME280;9383;50.928;12.116;2022-07-06T11:57:11;99427.75;;;20.82;45.21
18509;BME280;9383;50.928;12.116;2022-07-06T11:59:40;99341.81;;;20.25;43.42
18509;BME280;9383;50.928;12.116;2022-07-06T12:02:09;99437.56;;;20.83;44.17
18509;BME280;9383;50.928;12.116;2022-07-06T12:04:45;99424.63;;;20.88;44.63
18509;BME280;9383;50.928;12.116;2022-07-06T12:07:14;99384.94;;;20.77;44.70
18509;BME280;9383;50.928;12.116;2022-07-06T12:09:46;99412.97;;;21.00;42.95
18509;BME280;9383;50.928;12.116;2022-07-06T12:12:14;99413.84;;;21.01;43.07
18509;BME280;9383;50.928;12.116;2022-07-06T12:14:41;99347.63;;;20.71;43.90
18509;BME280;9383;50.928;12.116;2022-07-06T12:17:13;99411.25;;;21.12;42.67
18509;BME280;9383;50.928;12.116;2022-07-06T12:19:41;99409.53;;;21.11;42.08
18509;BME280;9383;50.928;12.116;2022-07-06T12:22:08;99398.53;;;21.14;41.91
18509;BME280;9383;50.928;12.116;2022-07-06T12:24:36;99407.34;;;21.16;42.19
18509;BME280;9383;50.928;12.116;2022-07-06T12:27:18;99406.91;;;21.22;41.20
18509;BME280;9383;50.928;12.116;2022-07-06T12:29:46;99410.13;;;21.28;41.72
18509;BME280;9383;50.928;12.116;2022-07-06T12:32:18;99376.50;;;21.20;41.40
18509;BME280;9383;50.928;12.116;2022-07-06T12:34:45;99306.19;;;20.86;40.93
18509;BME280;9383;50.928;12.116;2022-07-06T12:37:12;99342.34;;;21.08;40.02
18509;BME280;9383;50.928;12.116;2022-07-06T12:39:47;99397.78;;;21.49;40.93
18509;BME280;9383;50.928;12.116;2022-07-06T12:42:16;99398.66;;;21.50;39.36
18509;BME280;9383;50.928;12.116;2022-07-06T12:44:46;99392.09;;;21.41;39.95
18509;BME280;9383;50.928;12.116;2022-07-06T12:47:23;99342.78;;;21.02;40.30
18509;BME280;9383;50.928;12.116;2022-07-06T12:50:05;99386.09;;;21.25;40.01
18509;BME280;9383;50.928;12.116;2022-07-06T12:52:32;99382.84;;;21.32;40.42
18509;BME280;9383;50.928;12.116;2022-07-06T12:55:00;99373.47;;;21.25;40.53
18509;BME280;9383;50.928;12.116;2022-07-06T12:57:27;99394.31;;;21.47;40.06
18509;BME280;9383;50.928;12.116;2022-07-06T13:05:00;99378.44;;;21.56;38.27
18509;BME280;9383;50.928;12.116;2022-07-06T13:07:29;99377.94;;;21.50;37.44
18509;BME280;9383;50.928;12.116;2022-07-06T13:09:58;99377.63;;;21.42;38.37
18509;BME280;9383;50.928;12.116;2022-07-06T13:12:24;99351.78;;;21.27;38.80
18509;BME280;9383;50.928;12.116;2022-07-06T13:14:51;99336.06;;;21.20;39.34
18509;BME280;9383;50.928;12.116;2022-07-06T13:17:17;99386.22;;;21.47;38.92
18509;BME280;9383;50.928;12.116;2022-07-06T13:19:43;99372.13;;;21.44;38.94
18509;BME280;9383;50.928;12.116;2022-07-06T13:22:10;99340.38;;;21.23;38.58
18509;BME280;9383;50.928;12.116;2022-07-06T13:24:36;99372.75;;;21.47;38.60